createdAt,value
2023-03-26T00:02:09.645Z,10.71
2023-03-26T00:04:38.636Z,10.69
2023-03-26T00:07:10.803Z,10.67
2023-03-26T00:09:39.288Z,10.65
2023-03-26T00:12:11.944Z,10.63
2023-03-26T00:14:40.996Z,10.61
2023-03-26T00:17:09.429Z,10.59
2023-03-26T00:19:39.328Z,10.58
2023-03-26T00:22:08.306Z,10.57
2023-03-26T00:24:37.702Z,10.57
2023-03-26T00:27:08.966Z,10.57
2023-03-26T00:29:37.446Z,10.55
2023-03-26T00:32:06.392Z,10.54
2023-03-26T00:34:37.180Z,10.53
2023-03-26T00:37:05.736Z,10.53
2023-03-26T00:39:42.965Z,10.52
2023-03-26T00:42:14.994Z,10.51
2023-03-26T00:44:43.386Z,10.48
2023-03-26T00:47:13.351Z,10.46
2023-03-26T00:49:41.740Z,10.46
2023-03-26T00:52:10.155Z,10.46
2023-03-26T00:54:38.549Z,10.44
2023-03-26T00:57:07.007Z,10.43
2023-03-26T00:59:36.382Z,10.44
2023-03-26T01:02:04.805Z,10.44
2023-03-26T01:04:35.344Z,10.45
2023-03-26T01:07:10.148Z,10.46
2023-03-26T01:09:43.067Z,10.45
2023-03-26T01:12:22.310Z,10.47
2023-03-26T01:14:52.106Z,10.50
2023-03-26T01:17:22.133Z,10.52
2023-03-26T01:19:57.139Z,10.56
2023-03-26T01:22:26.881Z,10.58
2023-03-26T01:24:56.830Z,10.59
2023-03-26T01:27:36.099Z,10.60
2023-03-26T01:30:29.378Z,10.61
2023-03-26T01:33:16.813Z,10.63
2023-03-26T01:35:53.573Z,10.64
2023-03-26T01:38:35.716Z,10.64
2023-03-26T01:41:08.131Z,10.64
2023-03-26T01:43:50.378Z,10.64
2023-03-26T01:46:19.591Z,10.66
2023-03-26T01:48:49.076Z,10.67
2023-03-26T01:51:47.831Z,10.67
2023-03-26T01:54:19.431Z,10.68
2023-03-26T01:57:03.845Z,10.70
2023-03-26T02:00:12.922Z,10.71
2023-03-26T02:03:03.892Z,10.73
2023-03-26T02:05:40.851Z,10.74
2023-03-26T02:08:12.145Z,10.77
2023-03-26T02:10:44.362Z,10.78
2023-03-26T02:13:16.295Z,10.81
2023-03-26T02:16:02.338Z,10.83
2023-03-26T02:18:39.127Z,10.88
2023-03-26T02:21:21.890Z,10.93
2023-03-26T02:23:58.093Z,10.97
2023-03-26T02:26:26.529Z,11.01
2023-03-26T02:29:04.786Z,11.04
2023-03-26T02:31:38.861Z,11.07
2023-03-26T02:34:07.161Z,11.09
2023-03-26T02:36:37.478Z,11.10
2023-03-26T02:39:06.014Z,11.11
2023-03-26T02:41:38.345Z,11.12
2023-03-26T02:44:11.806Z,11.10
2023-03-26T02:46:58.811Z,11.11
2023-03-26T02:49:43.678Z,11.10
2023-03-26T02:52:17.310Z,11.09
2023-03-26T02:54:47.464Z,11.08
2023-03-26T02:57:19.842Z,11.06
2023-03-26T02:59:59.866Z,11.04
2023-03-26T03:02:40.401Z,11.01
2023-03-26T03:05:32.879Z,10.98
2023-03-26T03:08:22.690Z,10.94
2023-03-26T03:11:09.523Z,10.89
2023-03-26T03:13:45.938Z,10.84
2023-03-26T03:16:17.702Z,10.80
2023-03-26T03:18:47.792Z,10.76
2023-03-26T03:21:16.360Z,10.73
2023-03-26T03:23:44.994Z,10.71
2023-03-26T03:26:21.851Z,10.71
2023-03-26T03:28:57.707Z,10.69
2023-03-26T03:31:27.363Z,10.67
2023-03-26T03:33:59.787Z,10.67
2023-03-26T03:36:33.289Z,10.69
2023-03-26T03:39:14.981Z,10.69
2023-03-26T03:41:46.308Z,10.68
2023-03-26T03:44:17.600Z,10.67
2023-03-26T03:46:49.433Z,10.67
2023-03-26T03:49:19.935Z,10.68
2023-03-26T03:51:49.055Z,10.69
2023-03-26T03:54:31.830Z,10.69
2023-03-26T03:57:18.942Z,10.69
2023-03-26T04:00:11.998Z,10.66
2023-03-26T04:02:50.387Z,10.65
2023-03-26T04:05:19.013Z,10.65
2023-03-26T04:07:51.568Z,10.65
2023-03-26T04:10:28.688Z,10.66
2023-03-26T04:13:21.796Z,10.65
2023-03-26T04:15:56.768Z,10.62
2023-03-26T04:18:32.536Z,10.59
2023-03-26T04:21:07.507Z,10.59
2023-03-26T04:23:36.872Z,10.60
2023-03-26T04:26:20.017Z,10.59
2023-03-26T04:29:11.996Z,10.57
2023-03-26T04:31:40.593Z,10.50
2023-03-26T04:34:18.784Z,10.47
2023-03-26T04:36:55.930Z,10.44
2023-03-26T04:39:29.493Z,10.44
2023-03-26T04:42:20.140Z,10.43
2023-03-26T04:45:05.864Z,10.42
2023-03-26T04:47:37.346Z,10.43
2023-03-26T04:50:08.263Z,10.42
2023-03-26T04:52:37.956Z,10.46
2023-03-26T04:55:42.193Z,10.49
2023-03-26T04:58:17.730Z,10.51
2023-03-26T05:01:09.974Z,10.57
2023-03-26T05:03:42.149Z,10.63
2023-03-26T05:06:12.751Z,10.71
2023-03-26T05:08:42.035Z,10.77
2023-03-26T05:11:15.758Z,10.86
2023-03-26T05:13:44.638Z,10.95
2023-03-26T05:16:18.833Z,11.02
2023-03-26T05:18:55.628Z,11.08
2023-03-26T05:21:25.120Z,11.11
2023-03-26T05:23:53.492Z,11.15
2023-03-26T05:26:23.228Z,11.16
2023-03-26T05:28:52.834Z,11.17
2023-03-26T05:31:41.561Z,11.15
2023-03-26T05:34:10.868Z,11.15
2023-03-26T05:36:44.278Z,11.16
2023-03-26T05:39:46.096Z,11.18
2023-03-26T05:42:52.961Z,11.20
2023-03-26T05:45:48.158Z,11.22
2023-03-26T05:48:23.282Z,11.23
2023-03-26T05:50:53.096Z,11.25
2023-03-26T05:53:28.814Z,11.26
2023-03-26T05:56:20.862Z,11.27
2023-03-26T05:59:08.385Z,11.26
2023-03-26T06:02:10.816Z,11.24
2023-03-26T06:04:46.201Z,11.29
2023-03-26T06:07:40.735Z,11.34
2023-03-26T06:10:18.274Z,11.38
2023-03-26T06:12:49.811Z,11.44
2023-03-26T06:15:18.708Z,11.50
2023-03-26T06:17:59.326Z,11.55
2023-03-26T06:20:58.044Z,11.61
2023-03-26T06:23:59.627Z,11.69
2023-03-26T06:26:48.335Z,11.81
2023-03-26T06:29:26.237Z,11.95
2023-03-26T06:32:20.199Z,12.12
2023-03-26T06:34:55.597Z,12.29
2023-03-26T06:37:24.089Z,12.43
2023-03-26T06:39:58.247Z,12.59
2023-03-26T06:43:07.478Z,12.77
2023-03-26T06:45:52.076Z,12.95
2023-03-26T06:48:43.537Z,13.10
2023-03-26T06:51:32.330Z,13.23
2023-03-26T06:54:19.278Z,13.39
2023-03-26T06:56:57.381Z,13.55
2023-03-26T06:59:58.523Z,13.73
2023-03-26T07:03:06.420Z,13.90
2023-03-26T07:05:53.979Z,14.03
2023-03-26T07:08:52.069Z,14.16
2023-03-26T07:11:39.076Z,14.25
2023-03-26T07:14:28.244Z,14.32
2023-03-26T07:17:06.842Z,14.40
2023-03-26T07:19:47.981Z,14.47
2023-03-26T07:22:22.114Z,14.54
2023-03-26T07:25:17.652Z,14.64
2023-03-26T07:28:00.151Z,14.74
2023-03-26T07:31:05.011Z,14.84
2023-03-26T07:34:13.942Z,14.93
2023-03-26T07:37:02.124Z,15.03
2023-03-26T07:39:39.728Z,15.11
2023-03-26T07:42:42.279Z,15.19
2023-03-26T07:45:45.218Z,15.29
2023-03-26T07:48:36.817Z,15.40
2023-03-26T07:51:28.684Z,15.52
2023-03-26T07:54:11.037Z,15.63
2023-03-26T07:57:56.089Z,15.74
2023-03-26T08:00:49.079Z,15.87
2023-03-26T08:03:27.863Z,15.95
2023-03-26T08:06:12.380Z,15.97
2023-03-26T08:09:04.828Z,15.92
2023-03-26T08:11:58.888Z,15.86
2023-03-26T08:14:33.618Z,15.74
2023-03-26T08:17:35.202Z,15.61
2023-03-26T08:20:34.543Z,15.45
2023-03-26T08:23:14.134Z,15.32
2023-03-26T08:25:49.440Z,15.28
2023-03-26T08:28:28.082Z,15.26
2023-03-26T08:30:58.013Z,15.31
2023-03-26T08:33:28.459Z,15.37
2023-03-26T08:35:56.917Z,15.36
2023-03-26T08:38:26.296Z,15.34
2023-03-26T08:41:14.966Z,15.27
2023-03-26T08:43:44.126Z,15.19
2023-03-26T08:46:12.503Z,15.16
2023-03-26T08:49:13.060Z,15.16
2023-03-26T08:51:51.245Z,15.19
2023-03-26T08:54:58.453Z,15.25
2023-03-26T08:57:48.835Z,15.33
2023-03-26T09:00:26.662Z,15.41
2023-03-26T09:03:41.593Z,15.48
2023-03-26T09:06:24.276Z,15.47
2023-03-26T09:09:22.095Z,15.49
2023-03-26T09:12:11.827Z,15.55
2023-03-26T09:15:00.493Z,15.57
2023-03-26T09:17:39.211Z,15.53
2023-03-26T09:20:11.396Z,15.47
2023-03-26T09:22:48.554Z,15.37
2023-03-26T09:25:34.897Z,15.30
2023-03-26T09:28:47.507Z,15.27
2023-03-26T09:31:32.198Z,15.26
2023-03-26T09:34:26.494Z,15.24
2023-03-26T09:36:57.682Z,15.23
2023-03-26T09:39:37.755Z,15.29
2023-03-26T09:42:09.675Z,15.37
2023-03-26T09:44:44.576Z,15.47
2023-03-26T09:47:35.237Z,15.57
2023-03-26T09:50:26.814Z,15.66
2023-03-26T09:53:33.275Z,15.72
2023-03-26T09:56:21.228Z,15.77
2023-03-26T09:59:17.105Z,15.81
2023-03-26T10:02:04.958Z,15.84
2023-03-26T10:04:38.631Z,15.88
2023-03-26T10:07:16.423Z,15.89
2023-03-26T10:10:02.707Z,15.91
2023-03-26T10:13:14.542Z,15.91
2023-03-26T10:15:59.087Z,15.88
2023-03-26T10:18:33.400Z,15.81
2023-03-26T10:21:17.256Z,15.74
2023-03-26T10:23:48.616Z,15.66
2023-03-26T10:26:20.389Z,15.56
2023-03-26T10:29:02.558Z,15.48
2023-03-26T10:31:47.025Z,15.40
2023-03-26T10:34:28.144Z,15.30
2023-03-26T10:37:06.629Z,15.20
2023-03-26T10:40:10.378Z,15.10
2023-03-26T10:43:16.864Z,15.03
2023-03-26T10:46:00.703Z,15.00
2023-03-26T10:48:51.592Z,15.00
2023-03-26T10:51:44.981Z,15.04
2023-03-26T10:54:23.570Z,15.05
2023-03-26T10:56:52.718Z,15.07
2023-03-26T10:59:21.564Z,15.11
2023-03-26T11:02:00.852Z,15.14
2023-03-26T11:04:36.806Z,15.16
2023-03-26T11:07:29.237Z,15.16
2023-03-26T11:10:10.568Z,15.14
2023-03-26T11:13:07.212Z,15.13
2023-03-26T11:15:55.869Z,15.13
2023-03-26T11:18:36.984Z,15.14
2023-03-26T11:21:32.580Z,15.15
2023-03-26T11:24:18.398Z,15.12
2023-03-26T11:27:15.363Z,15.06
2023-03-26T11:30:27.805Z,14.99
2023-03-26T11:33:02.681Z,15.00
2023-03-26T11:35:42.524Z,15.03
2023-03-26T11:38:13.966Z,15.06
2023-03-26T11:40:43.902Z,15.08
2023-03-26T11:43:25.189Z,15.12
2023-03-26T11:45:54.278Z,15.17
2023-03-26T11:48:25.308Z,15.24
2023-03-26T11:51:07.615Z,15.30
2023-03-26T11:53:39.563Z,15.35
2023-03-26T11:56:17.488Z,15.41
2023-03-26T11:59:08.576Z,15.49
2023-03-26T12:02:10.303Z,15.60
2023-03-26T12:04:40.873Z,15.68
2023-03-26T12:07:21.328Z,15.74
2023-03-26T12:09:53.765Z,15.77
2023-03-26T12:12:24.917Z,15.77
2023-03-26T12:14:53.349Z,15.76
2023-03-26T12:17:31.436Z,15.74
2023-03-26T12:20:01.343Z,15.69
2023-03-26T12:22:36.466Z,15.66
2023-03-26T12:25:16.480Z,15.64
2023-03-26T12:28:17.549Z,15.63
2023-03-26T12:30:59.730Z,15.70
2023-03-26T12:33:30.081Z,15.77
2023-03-26T12:35:58.529Z,15.84
2023-03-26T12:38:35.960Z,15.91
2023-03-26T12:41:07.075Z,15.98
2023-03-26T12:44:55.070Z,16.00
2023-03-26T12:47:55.363Z,16.01
2023-03-26T12:49:23.985Z,16.02
2023-03-26T12:51:58.629Z,16.00
2023-03-26T12:54:46.295Z,15.97
2023-03-26T12:57:23.041Z,15.92
2023-03-26T13:00:01.289Z,15.85
2023-03-26T13:03:06.015Z,15.75
2023-03-26T13:05:57.118Z,15.65
2023-03-26T13:08:52.426Z,15.56
2023-03-26T13:11:33.596Z,15.46
2023-03-26T13:14:21.416Z,15.37
2023-03-26T13:16:59.972Z,15.25
2023-03-26T13:19:45.400Z,15.13
2023-03-26T13:22:45.979Z,15.01
2023-03-26T13:25:24.393Z,14.92
2023-03-26T13:28:17.474Z,14.86
2023-03-26T13:30:55.106Z,14.79
2023-03-26T13:33:54.974Z,14.73
2023-03-26T13:36:46.931Z,14.68
2023-03-26T13:39:15.277Z,14.66
2023-03-26T13:42:18.540Z,14.64
2023-03-26T13:45:12.131Z,14.63
2023-03-26T13:47:48.313Z,14.64
2023-03-26T13:50:25.307Z,14.66
2023-03-26T13:52:56.284Z,14.72
2023-03-26T13:55:41.328Z,14.84
2023-03-26T13:58:34.605Z,14.97
2023-03-26T14:01:26.410Z,15.08
2023-03-26T14:04:04.570Z,15.14
2023-03-26T14:06:46.802Z,15.15
2023-03-26T14:09:18.339Z,15.16
2023-03-26T14:12:06.732Z,15.17
2023-03-26T14:14:55.151Z,15.19
2023-03-26T14:17:47.718Z,15.18
2023-03-26T14:20:50.014Z,15.16
2023-03-26T14:23:28.802Z,15.11
2023-03-26T14:26:48.508Z,15.06
2023-03-26T14:29:56.599Z,14.95
2023-03-26T14:32:48.587Z,14.88
2023-03-26T14:35:17.409Z,14.79
2023-03-26T14:38:16.634Z,14.71
2023-03-26T14:41:13.333Z,14.61
2023-03-26T14:43:53.317Z,14.55
2023-03-26T14:47:00.942Z,14.51
2023-03-26T14:49:52.176Z,14.48
2023-03-26T14:52:51.830Z,14.47
2023-03-26T14:55:49.056Z,14.47
2023-03-26T14:58:30.086Z,14.47
2023-03-26T15:01:49.626Z,14.49
2023-03-26T15:04:20.862Z,14.50
2023-03-26T15:07:19.060Z,14.49
2023-03-26T15:09:57.001Z,14.50
2023-03-26T15:12:47.358Z,14.49
2023-03-26T15:15:43.444Z,14.48
2023-03-26T15:18:42.905Z,14.46
2023-03-26T15:21:34.429Z,14.43
2023-03-26T15:24:25.792Z,14.38
2023-03-26T15:27:18.986Z,14.34
2023-03-26T15:30:13.219Z,14.34
2023-03-26T15:33:18.354Z,14.34
2023-03-26T15:36:14.195Z,14.39
2023-03-26T15:39:07.989Z,14.40
2023-03-26T15:41:41.643Z,14.40
2023-03-26T15:44:29.200Z,14.42
2023-03-26T15:47:17.151Z,14.47
2023-03-26T15:49:52.912Z,14.47
2023-03-26T15:52:26.230Z,14.43
2023-03-26T15:55:16.809Z,14.34
2023-03-26T15:57:55.048Z,14.25
2023-03-26T16:00:29.413Z,14.16
2023-03-26T16:03:14.767Z,14.07
2023-03-26T16:06:16.026Z,13.98
2023-03-26T16:09:05.971Z,13.90
2023-03-26T16:11:51.219Z,13.81
2023-03-26T16:14:35.099Z,13.73
2023-03-26T16:17:08.218Z,13.65
2023-03-26T16:19:50.517Z,13.56
2023-03-26T16:22:43.915Z,13.46
2023-03-26T16:25:30.914Z,13.34
2023-03-26T16:28:40.355Z,13.26
2023-03-26T16:31:39.259Z,13.15
2023-03-26T16:34:54.283Z,13.05
2023-03-26T16:37:58.341Z,12.96
2023-03-26T16:40:29.937Z,12.89
2023-03-26T16:43:18.668Z,12.82
2023-03-26T16:46:14.879Z,12.74
2023-03-26T16:49:04.165Z,12.66
2023-03-26T16:52:08.741Z,12.59
2023-03-26T16:54:57.308Z,12.54
2023-03-26T16:57:39.132Z,12.48
2023-03-26T17:00:27.825Z,12.43
2023-03-26T17:03:08.802Z,12.38
2023-03-26T17:05:51.342Z,12.32
2023-03-26T17:08:57.839Z,12.25
2023-03-26T17:11:56.879Z,12.18
2023-03-26T17:15:06.675Z,12.10
2023-03-26T17:18:05.823Z,12.02
2023-03-26T17:21:30.058Z,11.96
2023-03-26T17:24:57.509Z,11.89
2023-03-26T17:27:53.612Z,11.81
2023-03-26T17:31:16.142Z,11.75
2023-03-26T17:33:49.099Z,11.68
2023-03-26T17:36:37.090Z,11.64
2023-03-26T17:39:42.100Z,11.59
2023-03-26T17:42:34.378Z,11.53
2023-03-26T17:45:20.744Z,11.47
2023-03-26T17:47:59.506Z,11.42
2023-03-26T17:50:54.975Z,11.38
2023-03-26T17:53:34.249Z,11.34
2023-03-26T17:56:14.313Z,11.32
2023-03-26T17:58:44.936Z,11.28
2023-03-26T18:01:20.069Z,11.25
2023-03-26T18:03:51.513Z,11.22
2023-03-26T18:06:48.397Z,11.18
2023-03-26T18:09:26.422Z,11.12
2023-03-26T18:12:10.480Z,11.04
2023-03-26T18:14:49.777Z,10.99
2023-03-26T18:17:20.246Z,10.94
2023-03-26T18:19:54.109Z,10.89
2023-03-26T18:22:28.245Z,10.84
2023-03-26T18:25:00.781Z,10.78
2023-03-26T18:27:39.092Z,10.73
2023-03-26T18:30:16.278Z,10.68
2023-03-26T18:33:20.330Z,10.65
2023-03-26T18:35:54.404Z,10.61
2023-03-26T18:38:36.697Z,10.57
2023-03-26T18:41:09.966Z,10.52
2023-03-26T18:43:44.146Z,10.49
2023-03-26T18:46:14.031Z,10.45
2023-03-26T18:48:44.354Z,10.40
2023-03-26T18:51:16.832Z,10.35
2023-03-26T18:53:51.264Z,10.31
2023-03-26T18:56:24.774Z,10.26
2023-03-26T18:58:53.282Z,10.22
2023-03-26T19:01:25.756Z,10.18
2023-03-26T19:03:55.563Z,10.15
2023-03-26T19:06:24.801Z,10.11
2023-03-26T19:08:54.407Z,10.08
2023-03-26T19:11:26.552Z,10.06
2023-03-26T19:14:03.694Z,10.05
2023-03-26T19:16:34.197Z,10.04
2023-03-26T19:19:05.699Z,10.03
2023-03-26T19:21:34.604Z,10.04
2023-03-26T19:24:17.751Z,10.01
2023-03-26T19:26:47.000Z,9.99
2023-03-26T19:29:23.898Z,9.93
2023-03-26T19:31:52.783Z,9.83
2023-03-26T19:34:50.899Z,9.71
2023-03-26T19:37:30.162Z,9.62
2023-03-26T19:40:13.284Z,9.57
2023-03-26T19:42:43.603Z,9.55
2023-03-26T19:45:18.743Z,9.53
2023-03-26T19:47:50.082Z,9.50
2023-03-26T19:50:27.059Z,9.44
2023-03-26T19:53:17.038Z,9.33
2023-03-26T19:55:57.516Z,9.24
2023-03-26T19:58:26.628Z,9.16
2023-03-26T20:00:56.726Z,9.13
2023-03-26T20:03:40.583Z,9.10
2023-03-26T20:06:13.277Z,9.09
2023-03-26T20:08:47.209Z,9.07
2023-03-26T20:11:28.032Z,9.06
2023-03-26T20:14:02.464Z,9.06
2023-03-26T20:16:33.620Z,9.07
2023-03-26T20:19:04.887Z,9.04
2023-03-26T20:21:41.601Z,8.97
2023-03-26T20:24:18.212Z,8.91
2023-03-26T20:26:46.859Z,8.88
2023-03-26T20:29:15.254Z,8.85
2023-03-26T20:31:43.831Z,8.81
2023-03-26T20:34:16.496Z,8.77
2023-03-26T20:36:46.045Z,8.72
2023-03-26T20:39:14.857Z,8.65
2023-03-26T20:41:47.883Z,8.59
2023-03-26T20:44:18.325Z,8.53
2023-03-26T20:46:48.415Z,8.49
2023-03-26T20:49:18.143Z,8.44
2023-03-26T20:51:47.064Z,8.40
2023-03-26T20:54:17.858Z,8.35
2023-03-26T20:56:47.951Z,8.26
2023-03-26T20:59:19.337Z,8.19
2023-03-26T21:01:50.047Z,8.19
2023-03-26T21:04:19.352Z,8.17
2023-03-26T21:06:47.785Z,8.14
2023-03-26T21:09:24.131Z,8.11
2023-03-26T21:12:34.399Z,8.10
2023-03-26T21:15:10.574Z,8.07
2023-03-26T21:17:51.698Z,8.02
2023-03-26T21:20:20.444Z,7.96
2023-03-26T21:23:05.199Z,7.88
2023-03-26T21:25:42.166Z,7.85
2023-03-26T21:28:42.321Z,7.86
2023-03-26T21:31:15.201Z,7.89
2023-03-26T21:33:44.435Z,7.90
2023-03-26T21:36:13.699Z,7.92
2023-03-26T21:38:45.585Z,7.92
2023-03-26T21:41:23.547Z,7.93
2023-03-26T21:43:52.636Z,7.92
2023-03-26T21:46:22.091Z,7.91
2023-03-26T21:48:51.171Z,7.91
2023-03-26T21:51:20.023Z,7.90
2023-03-26T21:53:49.184Z,7.89
2023-03-26T21:56:29.083Z,7.89
2023-03-26T21:59:10.671Z,7.90
2023-03-26T22:01:44.519Z,7.91
2023-03-26T22:04:13.058Z,7.88
2023-03-26T22:07:01.067Z,7.85
2023-03-26T22:09:36.312Z,7.82
2023-03-26T22:12:05.521Z,7.77
2023-03-26T22:14:34.518Z,7.75
2023-03-26T22:17:02.987Z,7.75
2023-03-26T22:19:31.873Z,7.72
2023-03-26T22:22:03.121Z,7.69
2023-03-26T22:24:32.197Z,7.66
2023-03-26T22:27:03.878Z,7.59
2023-03-26T22:29:33.588Z,7.53
2023-03-26T22:32:03.726Z,7.51
2023-03-26T22:34:35.121Z,7.52
2023-03-26T22:37:05.886Z,7.48
2023-03-26T22:39:35.186Z,7.46
2023-03-26T22:42:05.106Z,7.44
2023-03-26T22:44:33.614Z,7.40
2023-03-26T22:47:01.919Z,7.37
2023-03-26T22:49:31.588Z,7.36
2023-03-26T22:52:07.357Z,7.34
2023-03-26T22:54:37.149Z,7.30
2023-03-26T22:57:05.448Z,7.27
2023-03-26T22:59:35.710Z,7.24
2023-03-26T23:02:04.293Z,7.24
2023-03-26T23:04:32.796Z,7.26
2023-03-26T23:07:02.036Z,7.25
2023-03-26T23:09:30.599Z,7.25
2023-03-26T23:12:01.255Z,7.22
2023-03-26T23:14:32.547Z,7.20
2023-03-26T23:17:01.592Z,7.15
2023-03-26T23:19:34.252Z,7.08
2023-03-26T23:22:02.586Z,7.04
2023-03-26T23:24:30.806Z,7.01
2023-03-26T23:27:00.257Z,6.98
2023-03-26T23:29:30.217Z,6.93
2023-03-26T23:32:00.659Z,6.89
2023-03-26T23:34:29.240Z,6.86
2023-03-26T23:36:58.243Z,6.85
2023-03-26T23:39:28.714Z,6.86
2023-03-26T23:41:56.893Z,6.88
2023-03-26T23:44:29.613Z,6.89
2023-03-26T23:47:00.560Z,6.86
2023-03-26T23:49:29.518Z,6.80
2023-03-26T23:51:58.258Z,6.74
2023-03-26T23:54:26.827Z,6.72
2023-03-26T23:56:57.904Z,6.68
2023-03-26T23:59:26.657Z,6.63
